createdAt,value
2022-10-29T00:00:53.797Z,10.13
2022-10-29T00:03:22.675Z,7.18
2022-10-29T00:06:00.190Z,6.78
2022-10-29T00:08:29.531Z,6.97
2022-10-29T00:10:58.352Z,8.20
2022-10-29T00:13:26.629Z,7.35
2022-10-29T00:15:54.811Z,6.47
2022-10-29T00:18:23.085Z,6.03
2022-10-29T00:20:51.343Z,8.48
2022-10-29T00:23:20.897Z,8.80
2022-10-29T00:25:49.093Z,8.73
2022-10-29T00:28:17.287Z,13.27
2022-10-29T00:30:45.471Z,5.50
2022-10-29T00:33:13.758Z,7.57
2022-10-29T00:35:41.985Z,8.02
2022-10-29T00:38:10.208Z,6.05
2022-10-29T00:40:39.895Z,6.32
2022-10-29T00:43:14.554Z,11.40
2022-10-29T00:45:45.523Z,6.82
2022-10-29T00:48:13.820Z,9.02
2022-10-29T00:50:42.190Z,13.32
2022-10-29T00:53:10.401Z,7.05
2022-10-29T00:55:40.068Z,6.43
2022-10-29T00:58:08.264Z,9.97
2022-10-29T01:00:38.708Z,9.02
2022-10-29T01:03:07.201Z,8.48
2022-10-29T01:05:35.731Z,7.47
2022-10-29T01:08:04.759Z,8.10
2022-10-29T01:10:44.707Z,5.90
2022-10-29T01:13:25.414Z,7.15
2022-10-29T01:16:00.101Z,5.47
2022-10-29T01:18:36.382Z,9.35
2022-10-29T01:21:20.809Z,5.43
2022-10-29T01:24:18.372Z,6.53
2022-10-29T01:27:21.881Z,7.72
2022-10-29T01:30:05.414Z,6.05
2022-10-29T01:32:42.509Z,7.30
2022-10-29T01:35:15.644Z,6.68
2022-10-29T01:37:49.960Z,5.93
2022-10-29T01:40:22.995Z,7.57
2022-10-29T01:42:55.229Z,8.90
2022-10-29T01:45:27.372Z,10.25
2022-10-29T01:48:00.149Z,5.82
2022-10-29T01:50:28.647Z,7.47
2022-10-29T01:52:57.212Z,7.57
2022-10-29T01:55:32.079Z,8.27
2022-10-29T01:58:00.253Z,7.53
2022-10-29T02:00:28.624Z,8.70
2022-10-29T02:03:13.489Z,5.53
2022-10-29T02:05:50.838Z,8.10
2022-10-29T02:08:22.512Z,10.60
2022-10-29T02:10:55.962Z,7.90
2022-10-29T02:13:29.246Z,10.60
2022-10-29T02:15:58.395Z,7.88
2022-10-29T02:18:28.136Z,12.93
2022-10-29T02:20:56.438Z,6.73
2022-10-29T02:23:24.718Z,7.47
2022-10-29T02:25:53.010Z,8.13
2022-10-29T02:30:49.524Z,7.18
2022-10-29T02:33:17.766Z,9.85
2022-10-29T02:35:47.417Z,4.47
2022-10-29T02:38:15.642Z,8.83
2022-10-29T02:40:43.899Z,8.40
2022-10-29T02:43:12.143Z,10.90
2022-10-29T02:45:40.376Z,7.60
2022-10-29T02:48:08.605Z,6.40
2022-10-29T02:50:37.006Z,8.93
2022-10-29T02:53:06.749Z,7.30
2022-10-29T02:55:34.991Z,8.17
2022-10-29T02:58:03.222Z,6.80
2022-10-29T03:00:31.400Z,6.32
2022-10-29T03:03:00.229Z,9.05
2022-10-29T03:05:28.821Z,6.25
2022-10-29T03:07:57.015Z,7.53
2022-10-29T03:10:26.606Z,5.95
2022-10-29T03:12:55.181Z,11.77
2022-10-29T03:15:23.609Z,13.05
2022-10-29T03:17:51.869Z,6.68
2022-10-29T03:20:20.106Z,8.45
2022-10-29T03:22:48.296Z,6.95
2022-10-29T03:25:16.756Z,10.32
2022-10-29T03:27:46.919Z,5.07
2022-10-29T03:30:16.905Z,5.20
2022-10-29T03:32:46.611Z,8.98
2022-10-29T03:35:16.757Z,9.13
2022-10-29T03:37:44.959Z,7.30
2022-10-29T03:40:13.342Z,10.25
2022-10-29T03:42:41.623Z,7.35
2022-10-29T03:45:11.908Z,10.98
2022-10-29T03:47:40.154Z,6.43
2022-10-29T03:50:09.709Z,9.18
2022-10-29T03:52:37.924Z,7.68
2022-10-29T03:55:07.159Z,9.45
2022-10-29T03:57:35.560Z,8.35
2022-10-29T04:00:06.204Z,11.70
2022-10-29T04:05:03.884Z,7.45
2022-10-29T04:07:32.123Z,8.38
2022-10-29T04:10:00.354Z,8.45
2022-10-29T04:12:28.586Z,8.65
2022-10-29T04:14:56.994Z,8.20
2022-10-29T04:17:25.214Z,8.05
2022-10-29T04:19:54.746Z,8.95
2022-10-29T04:30:47.515Z,12.52
2022-10-29T04:33:15.820Z,8.00
2022-10-29T04:35:45.449Z,13.23
2022-10-29T04:38:13.956Z,6.97
2022-10-29T04:40:42.300Z,7.45
2022-10-29T04:43:10.554Z,10.18
2022-10-29T04:45:38.959Z,6.85
2022-10-29T04:48:07.822Z,7.68
2022-10-29T04:50:38.279Z,9.40
2022-10-29T04:53:08.569Z,9.60
2022-10-29T04:55:38.413Z,8.38
2022-10-29T04:58:06.822Z,8.48
2022-10-29T05:00:35.192Z,11.18
2022-10-29T05:03:03.432Z,7.82
2022-10-29T05:05:31.627Z,5.93
2022-10-29T05:08:00.663Z,6.18
2022-10-29T05:10:32.226Z,5.43
2022-10-29T05:13:01.374Z,6.85
2022-10-29T05:15:30.217Z,6.60
2022-10-29T05:17:59.135Z,7.20
2022-10-29T05:20:27.636Z,6.43
2022-10-29T05:23:02.390Z,9.80
2022-10-29T05:25:33.482Z,10.98
2022-10-29T05:28:05.615Z,6.95
2022-10-29T05:30:34.777Z,6.78
2022-10-29T05:33:03.031Z,6.60
2022-10-29T05:35:31.297Z,14.15
2022-10-29T05:38:00.300Z,9.10
2022-10-29T05:40:28.830Z,10.80
2022-10-29T05:42:58.782Z,10.10
2022-10-29T05:45:27.273Z,8.93
2022-10-29T05:47:58.814Z,10.98
2022-10-29T05:50:27.757Z,9.35
2022-10-29T05:52:57.207Z,9.02
2022-10-29T05:55:26.164Z,8.43
2022-10-29T05:57:58.420Z,7.60
2022-10-29T06:00:26.965Z,8.10
2022-10-29T06:02:55.647Z,7.28
2022-10-29T06:05:24.182Z,7.93
2022-10-29T06:07:56.318Z,9.00
2022-10-29T06:10:25.758Z,7.20
2022-10-29T06:12:53.963Z,11.05
2022-10-29T06:15:23.837Z,8.35
2022-10-29T06:17:52.185Z,8.07
2022-10-29T06:20:22.240Z,7.63
2022-10-29T06:22:57.906Z,12.02
2022-10-29T06:25:26.724Z,10.45
2022-10-29T06:28:01.967Z,10.18
2022-10-29T06:30:32.559Z,7.90
2022-10-29T06:35:29.392Z,10.65
2022-10-29T06:37:58.091Z,11.45
2022-10-29T06:40:26.711Z,8.38
2022-10-29T06:43:00.035Z,7.03
2022-10-29T06:45:28.855Z,8.73
2022-10-29T06:47:58.941Z,10.05
2022-10-29T06:50:29.477Z,12.52
2022-10-29T06:52:59.028Z,10.80
2022-10-29T06:55:28.035Z,9.82
2022-10-29T06:58:00.614Z,22.73
2022-10-29T07:00:29.372Z,14.98
2022-10-29T07:02:59.379Z,15.52
2022-10-29T07:05:28.113Z,13.05
2022-10-29T07:07:57.679Z,9.45
2022-10-29T07:10:27.916Z,7.93
2022-10-29T07:12:56.379Z,8.40
2022-10-29T07:15:27.629Z,6.72
2022-10-29T07:18:00.737Z,9.40
2022-10-29T07:20:29.977Z,9.57
2022-10-29T07:22:59.444Z,9.13
2022-10-29T07:25:27.751Z,11.88
2022-10-29T07:27:56.599Z,11.13
2022-10-29T07:30:25.281Z,12.93
2022-10-29T07:32:53.590Z,12.52
2022-10-29T07:35:23.205Z,10.35
2022-10-29T07:37:51.412Z,10.07
2022-10-29T07:40:19.590Z,6.68
2022-10-29T07:42:53.016Z,11.55
2022-10-29T07:45:22.146Z,11.20
2022-10-29T07:47:50.367Z,10.13
2022-10-29T07:50:18.628Z,15.93
2022-10-29T07:52:48.244Z,8.50
2022-10-29T07:55:16.799Z,6.03
2022-10-29T07:57:45.028Z,12.77
2022-10-29T08:00:14.945Z,8.90
2022-10-29T08:02:43.190Z,6.72
2022-10-29T08:05:11.466Z,9.25
2022-10-29T08:07:39.640Z,10.77
2022-10-29T08:10:10.293Z,13.50
2022-10-29T08:12:38.834Z,18.33
2022-10-29T08:15:08.541Z,13.75
2022-10-29T08:17:36.860Z,13.02
2022-10-29T08:20:05.898Z,20.35
2022-10-29T08:22:34.118Z,17.50
2022-10-29T08:25:02.399Z,16.98
2022-10-29T08:27:31.990Z,15.95
2022-10-29T08:30:00.284Z,15.33
2022-10-29T08:32:28.488Z,9.57
2022-10-29T08:34:56.694Z,11.60
2022-10-29T08:37:24.932Z,8.57
2022-10-29T08:39:53.139Z,8.32
2022-10-29T08:42:30.836Z,14.20
2022-10-29T08:45:14.180Z,11.60
2022-10-29T08:47:52.422Z,9.93
2022-10-29T08:50:25.319Z,12.55
2022-10-29T08:53:19.470Z,11.82
2022-10-29T08:55:42.235Z,7.85
2022-10-29T08:58:18.024Z,8.60
2022-10-29T09:00:50.385Z,10.15
2022-10-29T09:03:18.654Z,8.90
2022-10-29T09:05:52.035Z,9.98
2022-10-29T09:08:27.623Z,14.40
2022-10-29T09:10:57.652Z,12.70
2022-10-29T09:13:34.312Z,8.70
2022-10-29T09:16:19.268Z,10.68
2022-10-29T09:18:56.100Z,18.13
2022-10-29T09:21:30.600Z,32.78
2022-10-29T09:24:14.577Z,27.27
2022-10-29T09:26:54.247Z,16.98
2022-10-29T09:29:46.375Z,18.05
2022-10-29T09:32:18.648Z,16.23
2022-10-29T09:34:48.590Z,12.93
2022-10-29T09:37:19.478Z,22.67
2022-10-29T09:39:48.778Z,14.10
2022-10-29T09:42:20.000Z,10.93
2022-10-29T09:44:53.009Z,9.30
2022-10-29T09:47:29.842Z,16.10
2022-10-29T09:50:08.716Z,12.15
2022-10-29T09:52:38.141Z,10.80
2022-10-29T09:55:08.953Z,10.55
2022-10-29T09:57:37.550Z,9.23
2022-10-29T10:00:08.338Z,9.70
2022-10-29T10:05:27.948Z,9.02
2022-10-29T10:08:11.222Z,8.20
2022-10-29T10:10:53.055Z,11.70
2022-10-29T10:13:24.692Z,14.07
2022-10-29T10:15:56.043Z,11.82
2022-10-29T10:18:27.381Z,11.57
2022-10-29T10:21:04.373Z,14.75
2022-10-29T10:23:42.023Z,10.00
2022-10-29T10:26:35.839Z,16.27
2022-10-29T10:29:15.864Z,15.25
2022-10-29T10:31:45.440Z,11.00
2022-10-29T10:34:18.749Z,10.40
2022-10-29T10:36:51.534Z,8.48
2022-10-29T10:39:36.399Z,12.75
2022-10-29T10:42:06.895Z,12.75
2022-10-29T10:44:36.108Z,14.15
2022-10-29T10:47:07.642Z,13.80
2022-10-29T10:49:39.301Z,12.20
2022-10-29T10:52:16.699Z,11.23
2022-10-29T10:54:47.158Z,16.20
2022-10-29T10:57:24.158Z,11.77
2022-10-29T11:00:01.296Z,10.75
2022-10-29T11:02:40.830Z,11.27
2022-10-29T11:05:17.716Z,14.25
2022-10-29T11:07:49.866Z,8.82
2022-10-29T11:10:19.684Z,14.48
2022-10-29T11:12:51.061Z,9.90
2022-10-29T11:15:34.400Z,8.68
2022-10-29T11:18:06.372Z,13.32
2022-10-29T11:20:37.298Z,10.85
2022-10-29T11:23:21.866Z,15.35
2022-10-29T11:25:52.185Z,14.38
2022-10-29T11:33:25.654Z,13.43
2022-10-29T11:36:01.482Z,11.98
2022-10-29T11:38:34.533Z,10.10
2022-10-29T11:41:06.631Z,15.02
2022-10-29T11:43:35.188Z,9.65
2022-10-29T11:46:08.860Z,11.75
2022-10-29T11:48:49.573Z,12.05
2022-10-29T11:51:27.484Z,18.73
2022-10-29T11:54:01.411Z,11.10
2022-10-29T11:56:42.392Z,11.68
2022-10-29T11:59:15.761Z,9.77
2022-10-29T12:01:47.917Z,11.93
2022-10-29T12:04:24.549Z,19.45
2022-10-29T12:07:11.194Z,14.98
2022-10-29T12:10:08.989Z,11.68
2022-10-29T12:12:42.563Z,13.50
2022-10-29T12:15:17.070Z,11.77
2022-10-29T12:17:48.384Z,12.05
2022-10-29T12:20:22.142Z,13.35
2022-10-29T12:23:02.727Z,9.98
2022-10-29T12:25:40.399Z,13.02
2022-10-29T12:28:19.230Z,14.32
2022-10-29T12:31:07.158Z,14.73
2022-10-29T12:33:42.281Z,10.45
2022-10-29T12:36:17.329Z,11.43
2022-10-29T12:38:50.771Z,16.45
2022-10-29T12:41:21.533Z,13.13
2022-10-29T12:43:50.508Z,12.30
2022-10-29T12:46:25.545Z,12.63
2022-10-29T12:48:59.440Z,14.10
2022-10-29T12:51:34.650Z,12.25
2022-10-29T12:54:17.690Z,11.68
2022-10-29T12:56:49.383Z,10.80
2022-10-29T12:59:36.531Z,12.70
2022-10-29T13:02:27.785Z,19.05
2022-10-29T13:05:18.844Z,10.80
2022-10-29T13:08:12.345Z,13.75
2022-10-29T13:10:57.937Z,13.10
2022-10-29T13:13:50.711Z,9.10
2022-10-29T13:16:21.921Z,14.20
2022-10-29T13:19:06.226Z,14.05
2022-10-29T13:21:56.981Z,10.82
2022-10-29T13:24:25.249Z,15.90
2022-10-29T13:27:02.798Z,12.95
2022-10-29T13:29:49.091Z,11.68
2022-10-29T13:32:36.780Z,11.73
2022-10-29T13:35:07.431Z,12.52
2022-10-29T13:38:03.460Z,9.93
2022-10-29T13:41:19.086Z,11.30
2022-10-29T13:43:55.871Z,10.73
2022-10-29T13:46:33.236Z,11.73
2022-10-29T13:49:03.477Z,14.70
2022-10-29T13:54:07.026Z,11.07
2022-10-29T13:56:39.454Z,11.15
2022-10-29T13:59:14.484Z,11.02
2022-10-29T14:01:50.076Z,10.73
2022-10-29T14:04:24.307Z,14.77
2022-10-29T14:06:55.849Z,12.65
2022-10-29T14:09:31.399Z,12.48
2022-10-29T14:12:03.011Z,13.02
2022-10-29T14:14:36.250Z,13.77
2022-10-29T14:17:14.844Z,15.02
2022-10-29T14:19:47.418Z,13.90
2022-10-29T14:22:33.362Z,12.32
2022-10-29T14:25:02.845Z,13.60
2022-10-29T14:27:31.491Z,16.80
2022-10-29T14:30:19.721Z,15.82
2022-10-29T14:32:48.011Z,12.73
2022-10-29T14:35:17.386Z,13.68
2022-10-29T14:37:46.617Z,11.73
2022-10-29T14:40:18.970Z,9.95
2022-10-29T14:45:36.880Z,12.80
2022-10-29T14:48:10.251Z,7.97
2022-10-29T14:50:38.737Z,10.55
2022-10-29T14:53:09.165Z,10.45
2022-10-29T14:55:40.078Z,14.30
2022-10-29T14:58:15.429Z,11.60
2022-10-29T15:00:55.343Z,17.80
2022-10-29T15:03:25.462Z,16.17
2022-10-29T15:05:53.798Z,12.43
2022-10-29T15:08:29.353Z,13.63
2022-10-29T15:10:58.968Z,13.43
2022-10-29T15:13:33.195Z,14.77
2022-10-29T15:16:04.261Z,15.02
2022-10-29T15:18:34.445Z,11.40
2022-10-29T15:21:03.155Z,15.90
2022-10-29T15:23:34.095Z,15.93
2022-10-29T15:26:04.080Z,15.40
2022-10-29T15:28:37.264Z,12.35
2022-10-29T15:31:07.119Z,13.20
2022-10-29T15:33:36.741Z,11.85
2022-10-29T15:36:06.704Z,11.60
2022-10-29T15:39:08.764Z,21.23
2022-10-29T15:41:40.644Z,14.18
2022-10-29T15:44:29.673Z,12.85
2022-10-29T15:47:00.270Z,16.70
2022-10-29T15:49:32.356Z,17.15
2022-10-29T15:52:01.583Z,16.92
2022-10-29T15:54:30.098Z,11.55
2022-10-29T15:56:58.346Z,11.00
2022-10-29T15:59:27.228Z,11.70
2022-10-29T16:01:55.510Z,11.25
2022-10-29T16:04:25.254Z,12.30
2022-10-29T16:06:53.587Z,16.92
2022-10-29T16:09:22.000Z,12.20
2022-10-29T16:11:52.078Z,15.25
2022-10-29T16:14:20.256Z,15.55
2022-10-29T16:16:48.478Z,15.10
2022-10-29T16:19:16.700Z,15.15
2022-10-29T16:21:46.336Z,12.85
2022-10-29T16:24:15.589Z,14.70
2022-10-29T16:26:43.819Z,15.50
2022-10-29T16:29:15.975Z,11.70
2022-10-29T16:31:44.337Z,12.10
2022-10-29T16:34:14.508Z,20.45
2022-10-29T16:36:42.886Z,11.68
2022-10-29T16:39:12.436Z,12.88
2022-10-29T16:41:40.683Z,11.70
2022-10-29T16:44:08.977Z,16.45
2022-10-29T16:46:37.228Z,14.43
2022-10-29T16:49:05.529Z,15.60
2022-10-29T16:51:33.965Z,17.23
2022-10-29T16:54:02.221Z,19.30
2022-10-29T16:56:31.853Z,22.70
2022-10-29T16:59:02.119Z,19.93
2022-10-29T17:03:58.810Z,20.15
2022-10-29T17:06:27.157Z,16.30
2022-10-29T17:08:55.405Z,18.23
2022-10-29T17:11:23.679Z,16.85
2022-10-29T17:13:53.269Z,19.35
2022-10-29T17:16:21.628Z,13.20
2022-10-29T17:18:51.890Z,16.77
2022-10-29T17:21:20.305Z,17.85
2022-10-29T17:23:48.571Z,19.45
2022-10-29T17:26:16.762Z,20.42
2022-10-29T17:28:45.041Z,19.70
2022-10-29T17:31:14.769Z,16.17
2022-10-29T17:33:42.991Z,20.08
2022-10-29T17:36:13.152Z,18.27
2022-10-29T17:38:41.774Z,16.75
2022-10-29T17:41:10.074Z,19.60
2022-10-29T17:43:38.350Z,18.10
2022-10-29T17:46:06.654Z,14.75
2022-10-29T17:48:36.591Z,14.50
2022-10-29T17:51:05.077Z,27.35
2022-10-29T17:53:33.319Z,20.30
2022-10-29T17:56:02.354Z,18.27
2022-10-29T17:58:31.033Z,18.55
2022-10-29T18:01:05.175Z,18.92
2022-10-29T18:03:33.520Z,18.17
2022-10-29T18:06:03.859Z,16.92
2022-10-29T18:08:32.454Z,15.75
2022-10-29T18:11:04.331Z,24.90
2022-10-29T18:13:34.174Z,18.08
2022-10-29T18:16:03.048Z,21.95
2022-10-29T18:18:47.964Z,14.15
2022-10-29T18:21:25.434Z,18.92
2022-10-29T18:23:53.800Z,20.77
2022-10-29T18:26:24.885Z,16.10
2022-10-29T18:28:53.373Z,17.83
2022-10-29T18:31:22.493Z,18.88
2022-10-29T18:33:50.851Z,15.48
2022-10-29T18:36:19.178Z,20.25
2022-10-29T18:38:52.168Z,15.48
2022-10-29T18:41:20.613Z,22.13
2022-10-29T18:43:49.110Z,16.92
2022-10-29T18:46:18.193Z,17.73
2022-10-29T18:48:48.165Z,18.35
2022-10-29T18:51:19.389Z,16.98
2022-10-29T18:53:47.877Z,22.13
2022-10-29T18:56:19.065Z,18.20
2022-10-29T18:58:47.712Z,18.58
2022-10-29T19:01:17.456Z,17.20
2022-10-29T19:03:49.795Z,14.63
2022-10-29T19:06:18.170Z,16.08
2022-10-29T19:08:46.783Z,16.00
2022-10-29T19:11:18.009Z,15.15
2022-10-29T19:13:51.346Z,15.70
2022-10-29T19:16:19.617Z,15.90
2022-10-29T19:18:48.240Z,21.17
2022-10-29T19:21:18.608Z,18.50
2022-10-29T19:23:47.328Z,15.30
2022-10-29T19:26:18.414Z,22.80
2022-10-29T19:28:48.033Z,16.65
2022-10-29T19:31:18.042Z,10.63
2022-10-29T19:33:48.686Z,17.80
2022-10-29T19:38:45.241Z,20.08
2022-10-29T19:41:15.300Z,19.60
2022-10-29T19:43:45.176Z,15.30
2022-10-29T19:46:15.478Z,13.25
2022-10-29T19:48:44.499Z,24.98
2022-10-29T19:51:12.725Z,16.02
2022-10-29T19:53:41.002Z,19.02
2022-10-29T19:56:11.779Z,20.60
2022-10-29T19:58:40.446Z,16.75
2022-10-29T20:01:14.834Z,22.05
2022-10-29T20:03:43.533Z,16.90
2022-10-29T20:06:12.094Z,19.25
2022-10-29T20:08:40.395Z,20.65
2022-10-29T20:11:08.951Z,15.63
2022-10-29T20:13:37.915Z,15.50
2022-10-29T20:16:11.965Z,12.88
2022-10-29T20:18:40.259Z,11.75
2022-10-29T20:21:08.690Z,15.13
2022-10-29T20:23:37.183Z,13.23
2022-10-29T20:26:05.839Z,11.02
2022-10-29T20:28:34.158Z,14.15
2022-10-29T20:31:14.358Z,11.88
2022-10-29T20:33:42.653Z,14.75
2022-10-29T20:36:11.060Z,12.02
2022-10-29T20:38:39.344Z,13.15
2022-10-29T20:41:07.730Z,17.90
2022-10-29T20:43:35.991Z,16.00
2022-10-29T20:46:04.573Z,15.68
2022-10-29T20:48:36.191Z,16.00
2022-10-29T20:51:04.968Z,12.50
2022-10-29T20:53:33.257Z,14.88
2022-10-29T20:56:01.546Z,13.02
2022-10-29T20:58:29.865Z,14.45
2022-10-29T21:01:05.580Z,13.80
2022-10-29T21:03:35.244Z,12.93
2022-10-29T21:06:03.960Z,14.13
2022-10-29T21:08:32.542Z,16.30
2022-10-29T21:11:01.113Z,15.88
2022-10-29T21:13:29.927Z,17.45
2022-10-29T21:16:05.492Z,14.48
2022-10-29T21:18:39.919Z,12.27
2022-10-29T21:21:09.132Z,12.68
2022-10-29T21:23:38.648Z,15.60
2022-10-29T21:26:07.496Z,13.27
2022-10-29T21:28:35.773Z,14.95
2022-10-29T21:31:04.343Z,12.48
2022-10-29T21:33:32.559Z,14.85
2022-10-29T21:36:02.449Z,10.80
2022-10-29T21:38:31.010Z,9.60
2022-10-29T21:41:00.806Z,9.63
2022-10-29T21:43:29.206Z,8.35
2022-10-29T21:45:57.486Z,8.27
2022-10-29T21:48:26.770Z,8.75
2022-10-29T21:51:02.499Z,8.45
2022-10-29T21:53:31.393Z,8.88
2022-10-29T21:56:00.553Z,7.13
2022-10-29T21:58:29.316Z,8.80
2022-10-29T22:01:04.992Z,7.80
2022-10-29T22:03:33.899Z,7.05
2022-10-29T22:06:04.437Z,12.23
2022-10-29T22:11:01.042Z,7.93
2022-10-29T22:13:29.957Z,12.98
2022-10-29T22:15:58.522Z,11.18
2022-10-29T22:18:26.879Z,9.30
2022-10-29T22:21:05.563Z,9.20
2022-10-29T22:23:33.801Z,10.07
2022-10-29T22:26:02.039Z,12.38
2022-10-29T22:28:30.246Z,10.68
2022-10-29T22:31:00.271Z,10.68
2022-10-29T22:33:28.797Z,8.75
2022-10-29T22:35:57.018Z,11.45
2022-10-29T22:38:26.582Z,8.93
2022-10-29T22:40:54.785Z,9.35
2022-10-29T22:43:23.014Z,10.18
2022-10-29T22:45:51.239Z,9.10
2022-10-29T22:48:19.440Z,9.43
2022-10-29T22:50:47.612Z,8.63
2022-10-29T22:53:15.841Z,10.90
2022-10-29T22:55:52.686Z,8.27
2022-10-29T22:58:20.944Z,10.43
2022-10-29T23:00:49.277Z,10.52
2022-10-29T23:03:17.741Z,12.00
2022-10-29T23:05:45.929Z,29.35
2022-10-29T23:08:14.127Z,10.77
2022-10-29T23:10:42.407Z,7.53
2022-10-29T23:13:11.950Z,21.30
2022-10-29T23:15:40.177Z,9.30
2022-10-29T23:18:08.400Z,8.65
2022-10-29T23:20:36.630Z,11.40
2022-10-29T23:23:04.898Z,8.90
2022-10-29T23:25:33.137Z,8.70
2022-10-29T23:28:01.392Z,12.25
2022-10-29T23:30:30.998Z,12.35
2022-10-29T23:32:59.659Z,15.10
2022-10-29T23:35:28.100Z,17.42
2022-10-29T23:37:56.747Z,11.32
2022-10-29T23:40:25.156Z,9.98
2022-10-29T23:42:53.415Z,4.90
2022-10-29T23:45:21.632Z,4.53
2022-10-29T23:47:51.234Z,5.25
2022-10-29T23:50:19.468Z,4.97
2022-10-29T23:52:47.703Z,6.18
2022-10-29T23:55:16.041Z,12.25
2022-10-29T23:57:44.265Z,37.40
